DAL69 KPBI-KMSP
Flight info
| Callsign | DAL69 |
|---|---|
| Flight time | 3h 9m |
| Altitude | 38000 |
| Route | TBIRD7 SMELZ Q116 VLKNN MSL STL MNOSO BLUEM5 |
| Aircraft | B78X/H-SDE1E2E3FGHIJ2J3J4J5M1RWXY/CB1D1 |
Departure
| Time | 2026-05-08 15:16 |
|---|---|
| Airport | Palm Beach International Airport (KPBI) |
Arrival
| Time | 2026-05-08 18:25 |
|---|---|
| Airport | Minneapolis–Saint Paul International Airport / Wold–Chamberlain Field (KMSP) |
| Time | Latitude | Longitude | Altitude | Speed | Heading |
|---|---|---|---|---|---|
| 2026-05-08 14:54 | 26.68684 | -80.08883 | 32 ft | 0 kts | 273° |
| 2026-05-08 15:07 | 26.68684 | -80.08875 | 32 ft | 2 kts | 273° |
| 2026-05-08 15:07 | 26.68683 | -80.08855 | 32 ft | 3 kts | 268° |
| 2026-05-08 15:07 | 26.68685 | -80.08833 | 32 ft | 3 kts | 258° |
| 2026-05-08 15:07 | 26.68691 | -80.08811 | 32 ft | 3 kts | 247° |
| 2026-05-08 15:08 | 26.68700 | -80.08791 | 32 ft | 3 kts | 237° |
| 2026-05-08 15:08 | 26.68708 | -80.08778 | 32 ft | 3 kts | 231° |
| 2026-05-08 15:08 | 26.68711 | -80.08774 | 32 ft | 0 kts | 230° |
| 2026-05-08 15:10 | 26.68709 | -80.08777 | 32 ft | 3 kts | 229° |
| 2026-05-08 15:10 | 26.68622 | -80.08786 | 32 ft | 19 kts | 166° |
| 2026-05-08 15:10 | 26.68499 | -80.08777 | 32 ft | 19 kts | 182° |
| 2026-05-08 15:10 | 26.68394 | -80.08825 | 32 ft | 17 kts | 202° |
| 2026-05-08 15:11 | 26.68348 | -80.08932 | 32 ft | 16 kts | 268° |
| 2026-05-08 15:11 | 26.68354 | -80.09063 | 32 ft | 17 kts | 273° |
| 2026-05-08 15:11 | 26.68361 | -80.09204 | 32 ft | 18 kts | 273° |
| 2026-05-08 15:11 | 26.68366 | -80.09336 | 32 ft | 15 kts | 272° |
| 2026-05-08 15:12 | 26.68370 | -80.09461 | 32 ft | 17 kts | 272° |
| 2026-05-08 15:12 | 26.68374 | -80.09600 | 32 ft | 19 kts | 272° |
| 2026-05-08 15:12 | 26.68382 | -80.09737 | 32 ft | 17 kts | 274° |
| 2026-05-08 15:12 | 26.68389 | -80.09875 | 32 ft | 18 kts | 272° |
| 2026-05-08 15:13 | 26.68395 | -80.10015 | 32 ft | 16 kts | 272° |
| 2026-05-08 15:13 | 26.68400 | -80.10143 | 32 ft | 17 kts | 272° |
| 2026-05-08 15:13 | 26.68406 | -80.10280 | 32 ft | 18 kts | 272° |
| 2026-05-08 15:13 | 26.68406 | -80.10399 | 32 ft | 15 kts | 256° |
| 2026-05-08 15:14 | 26.68331 | -80.10465 | 32 ft | 8 kts | 168° |
| 2026-05-08 15:14 | 26.68307 | -80.10427 | 32 ft | 3 kts | 102° |
| 2026-05-08 15:14 | 26.68307 | -80.10425 | 32 ft | 0 kts | 100° |
| 2026-05-08 15:14 | 26.68307 | -80.10424 | 32 ft | 0 kts | 100° |
| 2026-05-08 15:15 | 26.68301 | -80.10382 | 32 ft | 29 kts | 98° |
| 2026-05-08 15:15 | 26.68273 | -80.09779 | 32 ft | 124 kts | 92° |
| 2026-05-08 15:15 | 26.68217 | -80.08517 | 146 ft | 185 kts | 93° |
| 2026-05-08 15:16 | 26.68151 | -80.07158 | 1344 ft | 171 kts | 91° |
| 2026-05-08 15:16 | 26.68165 | -80.05809 | 2330 ft | 181 kts | 84° |
| 2026-05-08 15:16 | 26.68650 | -80.04420 | 2984 ft | 194 kts | 66° |
| 2026-05-08 15:16 | 26.69269 | -80.03022 | 3656 ft | 208 kts | 62° |
| 2026-05-08 15:17 | 26.69964 | -80.01528 | 4208 ft | 227 kts | 61° |
| 2026-05-08 15:17 | 26.70705 | -79.99906 | 4849 ft | 246 kts | 62° |
| 2026-05-08 15:17 | 26.71750 | -79.98305 | 5408 ft | 262 kts | 44° |
| 2026-05-08 15:17 | 26.73383 | -79.97358 | 6079 ft | 269 kts | 19° |
| 2026-05-08 15:18 | 26.75205 | -79.96943 | 6848 ft | 274 kts | 10° |
| 2026-05-08 15:18 | 26.76933 | -79.96750 | 7364 ft | 281 kts | 360° |
| 2026-05-08 15:18 | 26.78734 | -79.97307 | 7927 ft | 279 kts | 335° |
| 2026-05-08 15:18 | 26.80184 | -79.98714 | 8578 ft | 277 kts | 310° |
| 2026-05-08 15:19 | 26.80956 | -80.00686 | 9283 ft | 278 kts | 287° |
| 2026-05-08 15:19 | 26.81309 | -80.02821 | 10029 ft | 282 kts | 279° |
| 2026-05-08 15:19 | 26.81745 | -80.05001 | 10563 ft | 295 kts | 284° |
| 2026-05-08 15:19 | 26.82394 | -80.07248 | 11091 ft | 310 kts | 288° |
| 2026-05-08 15:20 | 26.83106 | -80.09562 | 11687 ft | 320 kts | 288° |
| 2026-05-08 15:20 | 26.83848 | -80.11941 | 12405 ft | 326 kts | 288° |
| 2026-05-08 15:20 | 26.84587 | -80.14315 | 13187 ft | 329 kts | 288° |
| 2026-05-08 15:20 | 26.85354 | -80.16790 | 13994 ft | 331 kts | 288° |
| 2026-05-08 15:21 | 26.86108 | -80.19226 | 14769 ft | 332 kts | 288° |
| 2026-05-08 15:21 | 26.86609 | -80.20850 | 15271 ft | 333 kts | 288° |
| 2026-05-08 15:21 | 26.87365 | -80.23304 | 16024 ft | 334 kts | 288° |
| 2026-05-08 15:21 | 26.88125 | -80.25769 | 16745 ft | 335 kts | 288° |
| 2026-05-08 15:22 | 26.88886 | -80.28243 | 17432 ft | 337 kts | 288° |
| 2026-05-08 15:22 | 26.89650 | -80.30729 | 18119 ft | 338 kts | 288° |
| 2026-05-08 15:22 | 26.90417 | -80.33223 | 18752 ft | 340 kts | 288° |
| 2026-05-08 15:22 | 26.91318 | -80.35683 | 19263 ft | 348 kts | 295° |
| 2026-05-08 15:23 | 26.92932 | -80.37775 | 19673 ft | 361 kts | 316° |
| 2026-05-08 15:23 | 26.95172 | -80.39074 | 20374 ft | 367 kts | 335° |
| 2026-05-08 15:23 | 26.97623 | -80.39844 | 21209 ft | 364 kts | 340° |
| 2026-05-08 15:23 | 27.00077 | -80.40606 | 21635 ft | 370 kts | 339° |
| 2026-05-08 15:24 | 27.02555 | -80.41475 | 22082 ft | 374 kts | 337° |
| 2026-05-08 15:24 | 27.05015 | -80.42425 | 22569 ft | 377 kts | 335° |
| 2026-05-08 15:24 | 27.07494 | -80.43441 | 23066 ft | 380 kts | 335° |
| 2026-05-08 15:24 | 27.09950 | -80.44483 | 23573 ft | 382 kts | 334° |
| 2026-05-08 15:25 | 27.12428 | -80.45551 | 24103 ft | 383 kts | 334° |
| 2026-05-08 15:25 | 27.14909 | -80.46631 | 24593 ft | 386 kts | 333° |
| 2026-05-08 15:25 | 27.17395 | -80.47753 | 25075 ft | 388 kts | 333° |
| 2026-05-08 15:25 | 27.19937 | -80.48919 | 25530 ft | 391 kts | 332° |
| 2026-05-08 15:26 | 27.22449 | -80.50075 | 25989 ft | 394 kts | 332° |
| 2026-05-08 15:26 | 27.25008 | -80.51254 | 26446 ft | 397 kts | 332° |
| 2026-05-08 15:26 | 27.27556 | -80.52429 | 26902 ft | 399 kts | 332° |
| 2026-05-08 15:26 | 27.30141 | -80.53628 | 27322 ft | 401 kts | 332° |
| 2026-05-08 15:27 | 27.32707 | -80.54882 | 27741 ft | 403 kts | 331° |
| 2026-05-08 15:27 | 27.35276 | -80.56167 | 28154 ft | 406 kts | 330° |
| 2026-05-08 15:27 | 27.37858 | -80.57472 | 28548 ft | 408 kts | 330° |
| 2026-05-08 15:27 | 27.40468 | -80.58796 | 28935 ft | 411 kts | 330° |
| 2026-05-08 15:28 | 27.42535 | -80.59846 | 29254 ft | 412 kts | 330° |
| 2026-05-08 15:28 | 27.45222 | -80.61212 | 29650 ft | 415 kts | 330° |
| 2026-05-08 15:28 | 27.47828 | -80.62561 | 30037 ft | 415 kts | 328° |
| 2026-05-08 15:28 | 27.50293 | -80.64264 | 30357 ft | 413 kts | 321° |
| 2026-05-08 15:29 | 27.52621 | -80.66135 | 30854 ft | 411 kts | 319° |
| 2026-05-08 15:29 | 27.54921 | -80.68077 | 31146 ft | 414 kts | 317° |
| 2026-05-08 15:29 | 27.57153 | -80.70068 | 31554 ft | 414 kts | 316° |
| 2026-05-08 15:29 | 27.59378 | -80.72140 | 31852 ft | 416 kts | 315° |
| 2026-05-08 15:30 | 27.61584 | -80.74253 | 32234 ft | 417 kts | 314° |
| 2026-05-08 15:30 | 27.63788 | -80.76398 | 32613 ft | 418 kts | 314° |
| 2026-05-08 15:30 | 27.65972 | -80.78542 | 32960 ft | 419 kts | 314° |
| 2026-05-08 15:30 | 27.68172 | -80.80714 | 33305 ft | 420 kts | 314° |
| 2026-05-08 15:31 | 27.70389 | -80.82906 | 33643 ft | 422 kts | 314° |
| 2026-05-08 15:31 | 27.72579 | -80.85077 | 33954 ft | 424 kts | 314° |
| 2026-05-08 15:31 | 27.74803 | -80.87285 | 34262 ft | 426 kts | 314° |
| 2026-05-08 15:31 | 27.77036 | -80.89503 | 34545 ft | 428 kts | 314° |
| 2026-05-08 15:32 | 27.79275 | -80.91726 | 34834 ft | 430 kts | 314° |
| 2026-05-08 15:32 | 27.81545 | -80.93980 | 35153 ft | 432 kts | 314° |
| 2026-05-08 15:32 | 27.83901 | -80.96111 | 35435 ft | 437 kts | 317° |
| 2026-05-08 15:32 | 27.86358 | -80.98139 | 35701 ft | 440 kts | 319° |
| 2026-05-08 15:33 | 27.88861 | -81.00152 | 35952 ft | 442 kts | 319° |
| 2026-05-08 15:33 | 27.91383 | -81.02168 | 36229 ft | 444 kts | 319° |
| 2026-05-08 15:33 | 27.93910 | -81.04193 | 36562 ft | 444 kts | 319° |
| 2026-05-08 15:33 | 27.96392 | -81.06187 | 36948 ft | 442 kts | 319° |
| 2026-05-08 15:34 | 27.98894 | -81.08203 | 37313 ft | 441 kts | 319° |
| 2026-05-08 15:34 | 28.01392 | -81.10218 | 37694 ft | 439 kts | 319° |
| 2026-05-08 15:34 | 28.03867 | -81.12218 | 37993 ft | 437 kts | 318° |
| 2026-05-08 15:34 | 28.06325 | -81.14207 | 38060 ft | 436 kts | 318° |
| 2026-05-08 15:35 | 28.10725 | -81.18897 | 38062 ft | 433 kts | 301° |
| 2026-05-08 15:35 | 28.12165 | -81.21901 | 38097 ft | 433 kts | 290° |
| 2026-05-08 15:35 | 28.12994 | -81.25182 | 38101 ft | 435 kts | 280° |
| 2026-05-08 15:36 | 28.12997 | -81.32044 | 38155 ft | 444 kts | 266° |
| 2026-05-08 15:36 | 28.12441 | -81.39004 | 38118 ft | 442 kts | 266° |
| 2026-05-08 15:37 | 28.11970 | -81.45941 | 38097 ft | 442 kts | 267° |
| 2026-05-08 15:37 | 28.11563 | -81.52889 | 38099 ft | 443 kts | 267° |
| 2026-05-08 15:38 | 28.11176 | -81.59879 | 38110 ft | 443 kts | 268° |
| 2026-05-08 15:38 | 28.10792 | -81.66841 | 38100 ft | 443 kts | 268° |
| 2026-05-08 15:39 | 28.10409 | -81.73816 | 38111 ft | 443 kts | 268° |
| 2026-05-08 15:39 | 28.10022 | -81.80796 | 38110 ft | 444 kts | 267° |
| 2026-05-08 15:40 | 28.09633 | -81.87737 | 38099 ft | 444 kts | 267° |
| 2026-05-08 15:40 | 28.09238 | -81.94721 | 38103 ft | 444 kts | 267° |
| 2026-05-08 15:41 | 28.08842 | -82.01660 | 38092 ft | 444 kts | 267° |
| 2026-05-08 15:41 | 28.09211 | -82.08642 | 38035 ft | 444 kts | 283° |
| 2026-05-08 15:42 | 28.12043 | -82.14863 | 38075 ft | 455 kts | 304° |
| 2026-05-08 15:42 | 28.14293 | -82.17400 | 38087 ft | 463 kts | 315° |
| 2026-05-08 15:42 | 28.16989 | -82.19420 | 38115 ft | 469 kts | 324° |
| 2026-05-08 15:43 | 28.22743 | -82.22916 | 38131 ft | 469 kts | 324° |
| 2026-05-08 15:43 | 28.28276 | -82.26772 | 38108 ft | 466 kts | 321° |
| 2026-05-08 15:44 | 28.33612 | -82.30887 | 38093 ft | 464 kts | 319° |
| 2026-05-08 15:44 | 28.38943 | -82.35145 | 38095 ft | 464 kts | 319° |
| 2026-05-08 15:45 | 28.44186 | -82.39368 | 38104 ft | 463 kts | 318° |
| 2026-05-08 15:45 | 28.49430 | -82.43602 | 38093 ft | 463 kts | 318° |
| 2026-05-08 15:46 | 28.54716 | -82.47876 | 38103 ft | 463 kts | 318° |
| 2026-05-08 15:46 | 28.59962 | -82.52121 | 38097 ft | 462 kts | 318° |
| 2026-05-08 15:47 | 28.65201 | -82.56368 | 38089 ft | 463 kts | 318° |
| 2026-05-08 15:47 | 28.70422 | -82.60604 | 38099 ft | 462 kts | 318° |
| 2026-05-08 15:48 | 28.78279 | -82.66989 | 38084 ft | 461 kts | 318° |
| 2026-05-08 15:49 | 28.83498 | -82.71239 | 38096 ft | 461 kts | 317° |
| 2026-05-08 15:49 | 28.88715 | -82.75491 | 38085 ft | 462 kts | 317° |
| 2026-05-08 15:50 | 28.93942 | -82.79754 | 38083 ft | 461 kts | 317° |
| 2026-05-08 15:50 | 28.99136 | -82.83999 | 38091 ft | 461 kts | 317° |
| 2026-05-08 15:51 | 29.04343 | -82.88257 | 38077 ft | 460 kts | 317° |
| 2026-05-08 15:51 | 29.09560 | -82.92518 | 38082 ft | 460 kts | 317° |
| 2026-05-08 15:52 | 29.14772 | -82.96772 | 38079 ft | 461 kts | 317° |
| 2026-05-08 15:52 | 29.19979 | -83.01028 | 38069 ft | 460 kts | 317° |
| 2026-05-08 15:53 | 29.25186 | -83.05288 | 38079 ft | 460 kts | 317° |
| 2026-05-08 15:53 | 29.30386 | -83.09548 | 38067 ft | 460 kts | 317° |
| 2026-05-08 15:54 | 29.35572 | -83.13803 | 38055 ft | 461 kts | 317° |
| 2026-05-08 15:54 | 29.40781 | -83.18085 | 38064 ft | 461 kts | 317° |
| 2026-05-08 15:55 | 29.45996 | -83.22371 | 38060 ft | 460 kts | 317° |
| 2026-05-08 15:55 | 29.53819 | -83.28815 | 38062 ft | 461 kts | 317° |
| 2026-05-08 15:56 | 29.59024 | -83.33110 | 38063 ft | 461 kts | 317° |
| 2026-05-08 15:56 | 29.64214 | -83.37398 | 38054 ft | 462 kts | 316° |
| 2026-05-08 15:57 | 29.69421 | -83.41704 | 38067 ft | 461 kts | 316° |
| 2026-05-08 15:57 | 29.74637 | -83.46026 | 38058 ft | 462 kts | 316° |
| 2026-05-08 15:58 | 29.79864 | -83.50361 | 38062 ft | 462 kts | 316° |
| 2026-05-08 15:58 | 29.85084 | -83.54697 | 38052 ft | 463 kts | 316° |
| 2026-05-08 15:59 | 29.90300 | -83.59032 | 38042 ft | 463 kts | 316° |
| 2026-05-08 15:59 | 29.95517 | -83.63371 | 38050 ft | 462 kts | 316° |
| 2026-05-08 16:00 | 30.00720 | -83.67707 | 38042 ft | 462 kts | 316° |
| 2026-05-08 16:00 | 30.05967 | -83.72084 | 38039 ft | 462 kts | 316° |
| 2026-05-08 16:01 | 30.11128 | -83.76397 | 38049 ft | 462 kts | 316° |
| 2026-05-08 16:01 | 30.16352 | -83.80767 | 38036 ft | 462 kts | 316° |
| 2026-05-08 16:02 | 30.21547 | -83.85121 | 38045 ft | 462 kts | 316° |
| 2026-05-08 16:02 | 30.26755 | -83.89495 | 38047 ft | 462 kts | 316° |
| 2026-05-08 16:03 | 30.31948 | -83.93859 | 38065 ft | 461 kts | 316° |
| 2026-05-08 16:03 | 30.37102 | -83.98199 | 38076 ft | 461 kts | 316° |
| 2026-05-08 16:04 | 30.42284 | -84.02567 | 38067 ft | 460 kts | 316° |
| 2026-05-08 16:04 | 30.47461 | -84.06936 | 38081 ft | 460 kts | 315° |
| 2026-05-08 16:05 | 30.52621 | -84.11297 | 38080 ft | 459 kts | 315° |
| 2026-05-08 16:05 | 30.57783 | -84.15666 | 38075 ft | 458 kts | 315° |
| 2026-05-08 16:06 | 30.62918 | -84.20022 | 38087 ft | 457 kts | 315° |
| 2026-05-08 16:06 | 30.68047 | -84.24373 | 38074 ft | 455 kts | 315° |
| 2026-05-08 16:07 | 30.73157 | -84.28713 | 38091 ft | 454 kts | 315° |
| 2026-05-08 16:07 | 30.78264 | -84.33064 | 38108 ft | 453 kts | 315° |
| 2026-05-08 16:08 | 30.83322 | -84.37372 | 38097 ft | 452 kts | 315° |
| 2026-05-08 16:08 | 30.88387 | -84.41690 | 38094 ft | 451 kts | 315° |
| 2026-05-08 16:09 | 30.92608 | -84.45295 | 38105 ft | 449 kts | 314° |
| 2026-05-08 16:09 | 30.97624 | -84.49586 | 38094 ft | 449 kts | 314° |
| 2026-05-08 16:10 | 31.02657 | -84.53896 | 38098 ft | 448 kts | 314° |
| 2026-05-08 16:10 | 31.07666 | -84.58192 | 38104 ft | 447 kts | 314° |
| 2026-05-08 16:11 | 31.12694 | -84.62511 | 38093 ft | 447 kts | 314° |
| 2026-05-08 16:11 | 31.17655 | -84.66776 | 38105 ft | 447 kts | 314° |
| 2026-05-08 16:12 | 31.22670 | -84.71095 | 38097 ft | 447 kts | 314° |
| 2026-05-08 16:12 | 31.27669 | -84.75405 | 38103 ft | 446 kts | 314° |
| 2026-05-08 16:13 | 31.32662 | -84.79716 | 38112 ft | 446 kts | 314° |
| 2026-05-08 16:13 | 31.37647 | -84.84025 | 38102 ft | 445 kts | 313° |
| 2026-05-08 16:14 | 31.42633 | -84.88342 | 38113 ft | 445 kts | 313° |
| 2026-05-08 16:14 | 31.47577 | -84.92631 | 38110 ft | 445 kts | 313° |
| 2026-05-08 16:15 | 31.52543 | -84.96940 | 38104 ft | 444 kts | 313° |
| 2026-05-08 16:15 | 31.57517 | -85.01267 | 38117 ft | 444 kts | 313° |
| 2026-05-08 16:16 | 31.62465 | -85.05591 | 38105 ft | 443 kts | 313° |
| 2026-05-08 16:16 | 31.67354 | -85.09876 | 38109 ft | 444 kts | 313° |
| 2026-05-08 16:17 | 31.72356 | -85.14264 | 38113 ft | 444 kts | 313° |
| 2026-05-08 16:17 | 31.77261 | -85.18574 | 38104 ft | 442 kts | 313° |
| 2026-05-08 16:18 | 31.82194 | -85.22912 | 38115 ft | 443 kts | 313° |
| 2026-05-08 16:18 | 31.87121 | -85.27251 | 38106 ft | 442 kts | 313° |
| 2026-05-08 16:19 | 31.92034 | -85.31584 | 38110 ft | 443 kts | 312° |
| 2026-05-08 16:19 | 31.96965 | -85.35939 | 38115 ft | 442 kts | 312° |
| 2026-05-08 16:20 | 32.01878 | -85.40283 | 38100 ft | 440 kts | 312° |
| 2026-05-08 16:20 | 32.06761 | -85.44602 | 38106 ft | 438 kts | 311° |
| 2026-05-08 16:21 | 32.11593 | -85.48893 | 38096 ft | 438 kts | 311° |
| 2026-05-08 16:21 | 32.16477 | -85.53234 | 38111 ft | 438 kts | 311° |
| 2026-05-08 16:22 | 32.21341 | -85.57559 | 38112 ft | 438 kts | 311° |
| 2026-05-08 16:22 | 32.26191 | -85.61877 | 38104 ft | 438 kts | 311° |
| 2026-05-08 16:23 | 32.31087 | -85.66243 | 38117 ft | 438 kts | 311° |
| 2026-05-08 16:23 | 32.35952 | -85.70587 | 38108 ft | 438 kts | 311° |
| 2026-05-08 16:24 | 32.40777 | -85.74901 | 38112 ft | 438 kts | 311° |
| 2026-05-08 16:24 | 32.45650 | -85.79265 | 38115 ft | 438 kts | 311° |
| 2026-05-08 16:25 | 32.50505 | -85.83618 | 38104 ft | 438 kts | 311° |
| 2026-05-08 16:25 | 32.55360 | -85.87978 | 38116 ft | 438 kts | 311° |
| 2026-05-08 16:26 | 32.60222 | -85.92348 | 38108 ft | 437 kts | 311° |
| 2026-05-08 16:26 | 32.65038 | -85.96685 | 38109 ft | 437 kts | 311° |
| 2026-05-08 16:27 | 32.69876 | -86.01048 | 38122 ft | 438 kts | 311° |
| 2026-05-08 16:27 | 32.74762 | -86.05463 | 38112 ft | 440 kts | 311° |
| 2026-05-08 16:28 | 32.79633 | -86.09865 | 38122 ft | 439 kts | 311° |
| 2026-05-08 16:28 | 32.84487 | -86.14259 | 38130 ft | 439 kts | 311° |
| 2026-05-08 16:29 | 32.89338 | -86.18657 | 38125 ft | 438 kts | 311° |
| 2026-05-08 16:29 | 32.94182 | -86.23056 | 38139 ft | 438 kts | 311° |
| 2026-05-08 16:30 | 32.99011 | -86.27447 | 38143 ft | 437 kts | 311° |
| 2026-05-08 16:30 | 33.03849 | -86.31852 | 38139 ft | 437 kts | 310° |
| 2026-05-08 16:31 | 33.08659 | -86.36239 | 38152 ft | 437 kts | 310° |
| 2026-05-08 16:31 | 33.13479 | -86.40641 | 38143 ft | 437 kts | 310° |
| 2026-05-08 16:32 | 33.18279 | -86.45029 | 38144 ft | 436 kts | 310° |
| 2026-05-08 16:32 | 33.23096 | -86.49443 | 38148 ft | 438 kts | 310° |
| 2026-05-08 16:33 | 33.27991 | -86.53932 | 38134 ft | 438 kts | 310° |
| 2026-05-08 16:33 | 33.32821 | -86.58367 | 38141 ft | 438 kts | 310° |
| 2026-05-08 16:34 | 33.37601 | -86.62764 | 38141 ft | 438 kts | 310° |
| 2026-05-08 16:34 | 33.42441 | -86.67221 | 38135 ft | 437 kts | 310° |
| 2026-05-08 16:35 | 33.47261 | -86.71667 | 38149 ft | 437 kts | 310° |
| 2026-05-08 16:35 | 33.52042 | -86.76084 | 38145 ft | 437 kts | 310° |
| 2026-05-08 16:36 | 33.56856 | -86.80537 | 38148 ft | 438 kts | 310° |
| 2026-05-08 16:36 | 33.61683 | -86.85010 | 38154 ft | 438 kts | 310° |
| 2026-05-08 16:37 | 33.66501 | -86.89281 | 38107 ft | 449 kts | 315° |
| 2026-05-08 16:37 | 33.72093 | -86.92819 | 38139 ft | 459 kts | 320° |
| 2026-05-08 16:38 | 33.77915 | -86.96132 | 38142 ft | 460 kts | 321° |
| 2026-05-08 16:38 | 33.83704 | -86.99389 | 38137 ft | 460 kts | 321° |
| 2026-05-08 16:39 | 33.89536 | -87.02681 | 38129 ft | 460 kts | 321° |
| 2026-05-08 16:39 | 33.95296 | -87.05944 | 38138 ft | 460 kts | 321° |
| 2026-05-08 16:40 | 34.01094 | -87.09238 | 38131 ft | 462 kts | 321° |
| 2026-05-08 16:40 | 34.06903 | -87.12536 | 38130 ft | 460 kts | 321° |
| 2026-05-08 16:41 | 34.12691 | -87.15834 | 38140 ft | 461 kts | 321° |
| 2026-05-08 16:42 | 34.21386 | -87.20795 | 38129 ft | 460 kts | 321° |
| 2026-05-08 16:42 | 34.27215 | -87.24130 | 38143 ft | 462 kts | 321° |
| 2026-05-08 16:43 | 34.32984 | -87.27431 | 38131 ft | 462 kts | 321° |
| 2026-05-08 16:43 | 34.38796 | -87.30763 | 38133 ft | 462 kts | 320° |
| 2026-05-08 16:44 | 34.44603 | -87.34099 | 38138 ft | 462 kts | 320° |
| 2026-05-08 16:44 | 34.50419 | -87.37444 | 38123 ft | 462 kts | 320° |
| 2026-05-08 16:45 | 34.56221 | -87.40788 | 38128 ft | 462 kts | 320° |
| 2026-05-08 16:45 | 34.62023 | -87.44135 | 38130 ft | 462 kts | 320° |
| 2026-05-08 16:46 | 34.67830 | -87.47490 | 38118 ft | 462 kts | 320° |
| 2026-05-08 16:46 | 34.73343 | -87.50957 | 38118 ft | 456 kts | 317° |
| 2026-05-08 16:47 | 34.78870 | -87.54673 | 38104 ft | 454 kts | 317° |
| 2026-05-08 16:47 | 34.84368 | -87.58407 | 38113 ft | 453 kts | 317° |
| 2026-05-08 16:48 | 34.89888 | -87.62166 | 38110 ft | 453 kts | 317° |
| 2026-05-08 16:48 | 34.95392 | -87.65915 | 38099 ft | 453 kts | 317° |
| 2026-05-08 16:49 | 35.00885 | -87.69660 | 38108 ft | 452 kts | 317° |
| 2026-05-08 16:49 | 35.06383 | -87.73417 | 38098 ft | 453 kts | 317° |
| 2026-05-08 16:50 | 35.11843 | -87.77153 | 38092 ft | 452 kts | 317° |
| 2026-05-08 16:50 | 35.17311 | -87.80896 | 38100 ft | 450 kts | 317° |
| 2026-05-08 16:51 | 35.22787 | -87.84653 | 38086 ft | 451 kts | 317° |
| 2026-05-08 16:51 | 35.28249 | -87.88407 | 38081 ft | 451 kts | 317° |
| 2026-05-08 16:52 | 35.33724 | -87.92176 | 38085 ft | 451 kts | 317° |
| 2026-05-08 16:52 | 35.39168 | -87.95929 | 38079 ft | 451 kts | 317° |
| 2026-05-08 16:53 | 35.47363 | -88.01588 | 38086 ft | 451 kts | 317° |
| 2026-05-08 16:53 | 35.52840 | -88.05380 | 38079 ft | 451 kts | 317° |
| 2026-05-08 16:54 | 35.58310 | -88.09171 | 38076 ft | 451 kts | 317° |
| 2026-05-08 16:54 | 35.63775 | -88.12965 | 38081 ft | 451 kts | 317° |
| 2026-05-08 16:55 | 35.69202 | -88.16738 | 38068 ft | 450 kts | 316° |
| 2026-05-08 16:55 | 35.74690 | -88.20559 | 38079 ft | 450 kts | 316° |
| 2026-05-08 16:56 | 35.80108 | -88.24342 | 38074 ft | 450 kts | 316° |
| 2026-05-08 16:56 | 35.85547 | -88.28141 | 38070 ft | 450 kts | 316° |
| 2026-05-08 16:57 | 35.91004 | -88.31960 | 38081 ft | 450 kts | 316° |
| 2026-05-08 16:57 | 35.95530 | -88.35132 | 38070 ft | 451 kts | 316° |
| 2026-05-08 16:58 | 36.00979 | -88.38956 | 38069 ft | 451 kts | 317° |
| 2026-05-08 16:58 | 36.06434 | -88.42792 | 38076 ft | 451 kts | 317° |
| 2026-05-08 16:59 | 36.11912 | -88.46649 | 38063 ft | 452 kts | 317° |
| 2026-05-08 16:59 | 36.17376 | -88.50505 | 38072 ft | 452 kts | 317° |
| 2026-05-08 17:00 | 36.22850 | -88.54373 | 38068 ft | 452 kts | 317° |
| 2026-05-08 17:00 | 36.28275 | -88.58214 | 38061 ft | 452 kts | 317° |
| 2026-05-08 17:01 | 36.33752 | -88.62092 | 38071 ft | 453 kts | 317° |
| 2026-05-08 17:01 | 36.39215 | -88.65967 | 38059 ft | 453 kts | 317° |
| 2026-05-08 17:02 | 36.44667 | -88.69841 | 38052 ft | 451 kts | 317° |
| 2026-05-08 17:02 | 36.50104 | -88.73714 | 38059 ft | 452 kts | 317° |
| 2026-05-08 17:03 | 36.55549 | -88.77600 | 38047 ft | 453 kts | 317° |
| 2026-05-08 17:03 | 36.61028 | -88.81518 | 38055 ft | 456 kts | 317° |
| 2026-05-08 17:04 | 36.66558 | -88.85473 | 38051 ft | 455 kts | 317° |
| 2026-05-08 17:04 | 36.72043 | -88.89405 | 38044 ft | 456 kts | 317° |
| 2026-05-08 17:05 | 36.77526 | -88.93342 | 38057 ft | 456 kts | 317° |
| 2026-05-08 17:05 | 36.83051 | -88.97315 | 38045 ft | 456 kts | 317° |
| 2026-05-08 17:06 | 36.88548 | -89.01277 | 38049 ft | 457 kts | 317° |
| 2026-05-08 17:06 | 36.94047 | -89.05245 | 38050 ft | 457 kts | 318° |
| 2026-05-08 17:07 | 36.99521 | -89.09202 | 38041 ft | 454 kts | 318° |
| 2026-05-08 17:07 | 37.04996 | -89.13169 | 38049 ft | 456 kts | 318° |
| 2026-05-08 17:08 | 37.10494 | -89.17156 | 38033 ft | 456 kts | 318° |
| 2026-05-08 17:08 | 37.15981 | -89.21143 | 38039 ft | 457 kts | 318° |
| 2026-05-08 17:09 | 37.21478 | -89.25143 | 38039 ft | 457 kts | 318° |
| 2026-05-08 17:09 | 37.26984 | -89.29158 | 38024 ft | 458 kts | 318° |
| 2026-05-08 17:10 | 37.32480 | -89.33171 | 38025 ft | 457 kts | 318° |
| 2026-05-08 17:10 | 37.38006 | -89.37216 | 38022 ft | 458 kts | 318° |
| 2026-05-08 17:11 | 37.43513 | -89.41254 | 38013 ft | 459 kts | 319° |
| 2026-05-08 17:11 | 37.49020 | -89.45294 | 38023 ft | 459 kts | 319° |
| 2026-05-08 17:12 | 37.54536 | -89.49349 | 38009 ft | 460 kts | 319° |
| 2026-05-08 17:12 | 37.60057 | -89.53416 | 38010 ft | 460 kts | 319° |
| 2026-05-08 17:13 | 37.65584 | -89.57494 | 38014 ft | 460 kts | 319° |
| 2026-05-08 17:13 | 37.71121 | -89.61587 | 38000 ft | 460 kts | 319° |
| 2026-05-08 17:14 | 37.76651 | -89.65682 | 38007 ft | 461 kts | 319° |
| 2026-05-08 17:14 | 37.82190 | -89.69791 | 37999 ft | 462 kts | 319° |
| 2026-05-08 17:15 | 37.87698 | -89.73883 | 37984 ft | 462 kts | 319° |
| 2026-05-08 17:15 | 37.93248 | -89.78017 | 37988 ft | 462 kts | 319° |
| 2026-05-08 17:16 | 37.98784 | -89.82144 | 37987 ft | 462 kts | 319° |
| 2026-05-08 17:16 | 38.04334 | -89.86290 | 37976 ft | 462 kts | 319° |
| 2026-05-08 17:17 | 38.09882 | -89.90440 | 37982 ft | 462 kts | 319° |
| 2026-05-08 17:17 | 38.15431 | -89.94600 | 37973 ft | 462 kts | 319° |
| 2026-05-08 17:18 | 38.20929 | -89.98729 | 37969 ft | 462 kts | 319° |
| 2026-05-08 17:18 | 38.26471 | -90.02900 | 37977 ft | 462 kts | 319° |
| 2026-05-08 17:19 | 38.32008 | -90.07076 | 37963 ft | 462 kts | 319° |
| 2026-05-08 17:19 | 38.37530 | -90.11244 | 37973 ft | 462 kts | 319° |
| 2026-05-08 17:20 | 38.43075 | -90.15440 | 37975 ft | 462 kts | 319° |
| 2026-05-08 17:20 | 38.48597 | -90.19624 | 37974 ft | 463 kts | 319° |
| 2026-05-08 17:21 | 38.54114 | -90.23812 | 37985 ft | 463 kts | 319° |
| 2026-05-08 17:21 | 38.59634 | -90.28007 | 37971 ft | 460 kts | 319° |
| 2026-05-08 17:22 | 38.65131 | -90.32196 | 37967 ft | 461 kts | 319° |
| 2026-05-08 17:22 | 38.70643 | -90.36404 | 37959 ft | 461 kts | 319° |
| 2026-05-08 17:23 | 38.76180 | -90.40639 | 37954 ft | 461 kts | 319° |
| 2026-05-08 17:23 | 38.81650 | -90.44830 | 37962 ft | 461 kts | 319° |
| 2026-05-08 17:24 | 38.87285 | -90.48857 | 37967 ft | 469 kts | 323° |
| 2026-05-08 17:24 | 38.93282 | -90.52306 | 37951 ft | 472 kts | 326° |
| 2026-05-08 17:25 | 38.99307 | -90.55633 | 37933 ft | 470 kts | 326° |
| 2026-05-08 17:25 | 39.05317 | -90.58974 | 37946 ft | 471 kts | 326° |
| 2026-05-08 17:26 | 39.11328 | -90.62336 | 37938 ft | 471 kts | 326° |
| 2026-05-08 17:26 | 39.17347 | -90.65713 | 37937 ft | 471 kts | 326° |
| 2026-05-08 17:27 | 39.23352 | -90.69091 | 37946 ft | 471 kts | 326° |
| 2026-05-08 17:27 | 39.29359 | -90.72475 | 37933 ft | 471 kts | 326° |
| 2026-05-08 17:28 | 39.35329 | -90.75845 | 37942 ft | 471 kts | 326° |
| 2026-05-08 17:28 | 39.41325 | -90.79237 | 37940 ft | 471 kts | 326° |
| 2026-05-08 17:29 | 39.47333 | -90.82641 | 37933 ft | 470 kts | 326° |
| 2026-05-08 17:29 | 39.53306 | -90.86035 | 37945 ft | 471 kts | 326° |
| 2026-05-08 17:30 | 39.59308 | -90.89448 | 37934 ft | 471 kts | 326° |
| 2026-05-08 17:30 | 39.65286 | -90.92853 | 37938 ft | 471 kts | 326° |
| 2026-05-08 17:31 | 39.71280 | -90.96275 | 37942 ft | 471 kts | 326° |
| 2026-05-08 17:31 | 39.77260 | -90.99697 | 37930 ft | 471 kts | 326° |
| 2026-05-08 17:32 | 39.83288 | -91.03154 | 37943 ft | 471 kts | 326° |
| 2026-05-08 17:32 | 39.89279 | -91.06595 | 37930 ft | 471 kts | 326° |
| 2026-05-08 17:33 | 39.95291 | -91.10054 | 37928 ft | 471 kts | 326° |
| 2026-05-08 17:33 | 40.01286 | -91.13509 | 37935 ft | 472 kts | 326° |
| 2026-05-08 17:34 | 40.07299 | -91.16982 | 37922 ft | 471 kts | 326° |
| 2026-05-08 17:34 | 40.13279 | -91.20441 | 37932 ft | 472 kts | 326° |
| 2026-05-08 17:35 | 40.19298 | -91.23930 | 37925 ft | 471 kts | 326° |
| 2026-05-08 17:35 | 40.25282 | -91.27407 | 37915 ft | 472 kts | 326° |
| 2026-05-08 17:36 | 40.31289 | -91.30903 | 37921 ft | 472 kts | 326° |
| 2026-05-08 17:36 | 40.37275 | -91.34394 | 37908 ft | 472 kts | 326° |
| 2026-05-08 17:37 | 40.43280 | -91.37907 | 37907 ft | 472 kts | 326° |
| 2026-05-08 17:37 | 40.49291 | -91.41426 | 37915 ft | 472 kts | 326° |
| 2026-05-08 17:38 | 40.55295 | -91.44946 | 37902 ft | 472 kts | 326° |
| 2026-05-08 17:38 | 40.61255 | -91.48448 | 37905 ft | 472 kts | 326° |
| 2026-05-08 17:39 | 40.67301 | -91.52010 | 37901 ft | 473 kts | 326° |
| 2026-05-08 17:39 | 40.73268 | -91.55530 | 37888 ft | 472 kts | 326° |
| 2026-05-08 17:40 | 40.79270 | -91.59080 | 37893 ft | 473 kts | 327° |
| 2026-05-08 17:40 | 40.85265 | -91.62631 | 37891 ft | 471 kts | 327° |
| 2026-05-08 17:41 | 40.91259 | -91.66193 | 37882 ft | 472 kts | 327° |
| 2026-05-08 17:41 | 40.97264 | -91.69768 | 37895 ft | 473 kts | 327° |
| 2026-05-08 17:42 | 41.03259 | -91.73338 | 37881 ft | 473 kts | 327° |
| 2026-05-08 17:42 | 41.08258 | -91.76322 | 37870 ft | 473 kts | 327° |
| 2026-05-08 17:43 | 41.15242 | -91.80501 | 37870 ft | 474 kts | 327° |
| 2026-05-08 17:43 | 41.21250 | -91.84103 | 37863 ft | 474 kts | 327° |
| 2026-05-08 17:44 | 41.26280 | -91.87125 | 37860 ft | 474 kts | 327° |
| 2026-05-08 17:44 | 41.32277 | -91.90733 | 37871 ft | 473 kts | 327° |
| 2026-05-08 17:45 | 41.38244 | -91.94333 | 37861 ft | 474 kts | 327° |
| 2026-05-08 17:45 | 41.44251 | -91.97964 | 37872 ft | 474 kts | 327° |
| 2026-05-08 17:46 | 41.50273 | -92.01611 | 37876 ft | 475 kts | 327° |
| 2026-05-08 17:46 | 41.56309 | -92.05273 | 37862 ft | 475 kts | 327° |
| 2026-05-08 17:47 | 41.62310 | -92.08921 | 37868 ft | 475 kts | 327° |
| 2026-05-08 17:47 | 41.68339 | -92.12596 | 37879 ft | 476 kts | 327° |
| 2026-05-08 17:48 | 41.74376 | -92.16283 | 37872 ft | 476 kts | 327° |
| 2026-05-08 17:48 | 41.80383 | -92.19957 | 37867 ft | 475 kts | 327° |
| 2026-05-08 17:49 | 41.86376 | -92.23630 | 37879 ft | 476 kts | 327° |
| 2026-05-08 17:49 | 41.92383 | -92.27323 | 37865 ft | 475 kts | 327° |
| 2026-05-08 17:50 | 41.98403 | -92.31028 | 37859 ft | 475 kts | 327° |
| 2026-05-08 17:50 | 42.04419 | -92.34739 | 37871 ft | 475 kts | 327° |
| 2026-05-08 17:51 | 42.10418 | -92.38448 | 37858 ft | 475 kts | 328° |
| 2026-05-08 17:51 | 42.16430 | -92.42173 | 37861 ft | 475 kts | 328° |
| 2026-05-08 17:52 | 42.22408 | -92.45884 | 37860 ft | 476 kts | 328° |
| 2026-05-08 17:53 | 42.31454 | -92.51514 | 37854 ft | 475 kts | 328° |
| 2026-05-08 17:53 | 42.37430 | -92.55247 | 37862 ft | 475 kts | 328° |
| 2026-05-08 17:54 | 42.43396 | -92.59057 | 37850 ft | 474 kts | 327° |
| 2026-05-08 17:54 | 42.49372 | -92.62904 | 37861 ft | 475 kts | 327° |
| 2026-05-08 17:55 | 42.55339 | -92.66752 | 37854 ft | 474 kts | 328° |
| 2026-05-08 17:55 | 42.61296 | -92.70600 | 37845 ft | 475 kts | 328° |
| 2026-05-08 17:56 | 42.67263 | -92.74464 | 37852 ft | 475 kts | 328° |
| 2026-05-08 17:56 | 42.73195 | -92.78313 | 37840 ft | 475 kts | 328° |
| 2026-05-08 17:57 | 42.79157 | -92.82198 | 37831 ft | 475 kts | 328° |
| 2026-05-08 17:57 | 42.85099 | -92.86108 | 37812 ft | 473 kts | 328° |
| 2026-05-08 17:57 | 42.88049 | -92.88053 | 37257 ft | 471 kts | 328° |
| 2026-05-08 17:58 | 42.91008 | -92.90001 | 36811 ft | 461 kts | 327° |
| 2026-05-08 17:58 | 42.93888 | -92.91900 | 36198 ft | 457 kts | 327° |
| 2026-05-08 17:58 | 42.96699 | -92.93757 | 35711 ft | 452 kts | 327° |
| 2026-05-08 17:58 | 42.99521 | -92.95628 | 35161 ft | 449 kts | 327° |
| 2026-05-08 17:59 | 43.02308 | -92.97475 | 34640 ft | 443 kts | 327° |
| 2026-05-08 17:59 | 43.05068 | -92.99306 | 34114 ft | 438 kts | 327° |
| 2026-05-08 17:59 | 43.07795 | -93.01117 | 33596 ft | 434 kts | 327° |
| 2026-05-08 17:59 | 43.10503 | -93.02920 | 33081 ft | 430 kts | 327° |
| 2026-05-08 18:00 | 43.13186 | -93.04709 | 32570 ft | 426 kts | 327° |
| 2026-05-08 18:00 | 43.18466 | -93.08230 | 31567 ft | 419 kts | 327° |
| 2026-05-08 18:00 | 43.21078 | -93.09975 | 31071 ft | 415 kts | 327° |
| 2026-05-08 18:01 | 43.23655 | -93.11698 | 30581 ft | 411 kts | 327° |
| 2026-05-08 18:01 | 43.26222 | -93.13415 | 30098 ft | 408 kts | 327° |
| 2026-05-08 18:01 | 43.28772 | -93.15122 | 29610 ft | 405 kts | 327° |
| 2026-05-08 18:01 | 43.31260 | -93.16790 | 29137 ft | 403 kts | 327° |
| 2026-05-08 18:02 | 43.33769 | -93.18475 | 28661 ft | 399 kts | 327° |
| 2026-05-08 18:02 | 43.35448 | -93.19601 | 28340 ft | 397 kts | 328° |
| 2026-05-08 18:02 | 43.38720 | -93.21800 | 27718 ft | 394 kts | 328° |
| 2026-05-08 18:02 | 43.41184 | -93.23458 | 27250 ft | 392 kts | 328° |
| 2026-05-08 18:03 | 43.43627 | -93.25103 | 26784 ft | 389 kts | 328° |
| 2026-05-08 18:03 | 43.46053 | -93.26737 | 26321 ft | 385 kts | 328° |
| 2026-05-08 18:03 | 43.48475 | -93.28280 | 25838 ft | 385 kts | 332° |
| 2026-05-08 18:03 | 43.51087 | -93.29174 | 25309 ft | 387 kts | 345° |
| 2026-05-08 18:04 | 43.53781 | -93.29233 | 24884 ft | 385 kts | 356° |
| 2026-05-08 18:04 | 43.56411 | -93.28865 | 24488 ft | 379 kts | 360° |
| 2026-05-08 18:04 | 43.58996 | -93.28461 | 23976 ft | 376 kts | 0° |
| 2026-05-08 18:04 | 43.61627 | -93.28094 | 23459 ft | 374 kts | 359° |
| 2026-05-08 18:05 | 43.64212 | -93.27782 | 22966 ft | 372 kts | 359° |
| 2026-05-08 18:05 | 43.66761 | -93.27506 | 22520 ft | 370 kts | 358° |
| 2026-05-08 18:05 | 43.69315 | -93.27248 | 22068 ft | 367 kts | 358° |
| 2026-05-08 18:05 | 43.71855 | -93.27002 | 21610 ft | 365 kts | 358° |
| 2026-05-08 18:06 | 43.74367 | -93.26765 | 21144 ft | 361 kts | 358° |
| 2026-05-08 18:06 | 43.76873 | -93.26529 | 20671 ft | 357 kts | 358° |
| 2026-05-08 18:06 | 43.79336 | -93.26298 | 20212 ft | 354 kts | 358° |
| 2026-05-08 18:06 | 43.81776 | -93.26071 | 19769 ft | 351 kts | 358° |
| 2026-05-08 18:07 | 43.84199 | -93.25844 | 19340 ft | 348 kts | 358° |
| 2026-05-08 18:07 | 43.86602 | -93.25617 | 18896 ft | 346 kts | 357° |
| 2026-05-08 18:07 | 43.89015 | -93.25394 | 18429 ft | 344 kts | 357° |
| 2026-05-08 18:07 | 43.91365 | -93.25175 | 17977 ft | 341 kts | 358° |
| 2026-05-08 18:08 | 43.93741 | -93.24952 | 17569 ft | 336 kts | 358° |
| 2026-05-08 18:08 | 43.96066 | -93.24734 | 17233 ft | 333 kts | 358° |
| 2026-05-08 18:08 | 43.98350 | -93.24508 | 16869 ft | 334 kts | 358° |
| 2026-05-08 18:08 | 44.00673 | -93.24264 | 16478 ft | 335 kts | 358° |
| 2026-05-08 18:09 | 44.02941 | -93.24019 | 16079 ft | 332 kts | 358° |
| 2026-05-08 18:09 | 44.05277 | -93.23764 | 15652 ft | 328 kts | 359° |
| 2026-05-08 18:09 | 44.07536 | -93.23519 | 15234 ft | 325 kts | 358° |
| 2026-05-08 18:09 | 44.09790 | -93.23276 | 14813 ft | 323 kts | 359° |
| 2026-05-08 18:10 | 44.11989 | -93.23038 | 14400 ft | 311 kts | 358° |
| 2026-05-08 18:10 | 44.14102 | -93.22806 | 13900 ft | 300 kts | 358° |
| 2026-05-08 18:10 | 44.16158 | -93.22590 | 13285 ft | 294 kts | 358° |
| 2026-05-08 18:10 | 44.18177 | -93.22377 | 12877 ft | 282 kts | 358° |
| 2026-05-08 18:11 | 44.20065 | -93.22188 | 12762 ft | 262 kts | 357° |
| 2026-05-08 18:11 | 44.21853 | -93.22023 | 12623 ft | 260 kts | 357° |
| 2026-05-08 18:11 | 44.23703 | -93.21865 | 12453 ft | 271 kts | 357° |
| 2026-05-08 18:11 | 44.25587 | -93.21698 | 12240 ft | 270 kts | 357° |
| 2026-05-08 18:12 | 44.27389 | -93.21529 | 12061 ft | 254 kts | 357° |
| 2026-05-08 18:12 | 44.29158 | -93.21371 | 11837 ft | 258 kts | 357° |
| 2026-05-08 18:12 | 44.30998 | -93.21231 | 11561 ft | 264 kts | 357° |
| 2026-05-08 18:12 | 44.32835 | -93.21089 | 11281 ft | 263 kts | 357° |
| 2026-05-08 18:13 | 44.34646 | -93.20949 | 10996 ft | 264 kts | 357° |
| 2026-05-08 18:13 | 44.36478 | -93.20805 | 10760 ft | 264 kts | 358° |
| 2026-05-08 18:13 | 44.38321 | -93.20483 | 10518 ft | 268 kts | 4° |
| 2026-05-08 18:13 | 44.40147 | -93.19916 | 10292 ft | 270 kts | 7° |
| 2026-05-08 18:14 | 44.41969 | -93.19316 | 10038 ft | 270 kts | 8° |
| 2026-05-08 18:14 | 44.43699 | -93.18265 | 9706 ft | 271 kts | 24° |
| 2026-05-08 18:14 | 44.45232 | -93.16815 | 9545 ft | 269 kts | 30° |
| 2026-05-08 18:14 | 44.46760 | -93.15299 | 9302 ft | 272 kts | 32° |
| 2026-05-08 18:15 | 44.48313 | -93.13738 | 9017 ft | 269 kts | 32° |
| 2026-05-08 18:15 | 44.49795 | -93.12250 | 8746 ft | 261 kts | 32° |
| 2026-05-08 18:15 | 44.51261 | -93.10782 | 8492 ft | 261 kts | 32° |
| 2026-05-08 18:15 | 44.52749 | -93.09297 | 8278 ft | 262 kts | 32° |
| 2026-05-08 18:16 | 44.54239 | -93.07811 | 8038 ft | 262 kts | 32° |
| 2026-05-08 18:16 | 44.55719 | -93.06335 | 7790 ft | 259 kts | 32° |
| 2026-05-08 18:16 | 44.57180 | -93.04878 | 7554 ft | 259 kts | 32° |
| 2026-05-08 18:16 | 44.58651 | -93.03405 | 7311 ft | 259 kts | 32° |
| 2026-05-08 18:17 | 44.60114 | -93.01942 | 7103 ft | 256 kts | 32° |
| 2026-05-08 18:17 | 44.61545 | -93.00503 | 7008 ft | 249 kts | 32° |
| 2026-05-08 18:17 | 44.62896 | -92.99126 | 6971 ft | 234 kts | 33° |
| 2026-05-08 18:17 | 44.64171 | -92.97726 | 6752 ft | 226 kts | 35° |
| 2026-05-08 18:18 | 44.65358 | -92.96399 | 6560 ft | 217 kts | 36° |
| 2026-05-08 18:18 | 44.66538 | -92.95078 | 6403 ft | 213 kts | 36° |
| 2026-05-08 18:18 | 44.67697 | -92.93784 | 6263 ft | 211 kts | 35° |
| 2026-05-08 18:18 | 44.68899 | -92.92606 | 6037 ft | 210 kts | 27° |
| 2026-05-08 18:19 | 44.70300 | -92.92308 | 5707 ft | 203 kts | 357° |
| 2026-05-08 18:19 | 44.71574 | -92.92974 | 5788 ft | 195 kts | 335° |
| 2026-05-08 18:19 | 44.72844 | -92.93686 | 5815 ft | 198 kts | 335° |
| 2026-05-08 18:19 | 44.74154 | -92.94373 | 5411 ft | 199 kts | 335° |
| 2026-05-08 18:20 | 44.75421 | -92.95159 | 4996 ft | 198 kts | 332° |
| 2026-05-08 18:20 | 44.76608 | -92.96061 | 4688 ft | 190 kts | 325° |
| 2026-05-08 18:20 | 44.77494 | -92.97374 | 4473 ft | 186 kts | 309° |
| 2026-05-08 18:20 | 44.78207 | -92.98833 | 4318 ft | 185 kts | 302° |
| 2026-05-08 18:21 | 44.78867 | -93.00427 | 4054 ft | 184 kts | 298° |
| 2026-05-08 18:21 | 44.79499 | -93.01987 | 3787 ft | 183 kts | 297° |
| 2026-05-08 18:21 | 44.80137 | -93.03528 | 3531 ft | 182 kts | 298° |
| 2026-05-08 18:21 | 44.80794 | -93.05062 | 3282 ft | 181 kts | 298° |
| 2026-05-08 18:22 | 44.81465 | -93.06555 | 3045 ft | 180 kts | 300° |
| 2026-05-08 18:22 | 44.82129 | -93.08046 | 2818 ft | 180 kts | 299° |
| 2026-05-08 18:22 | 44.82781 | -93.09545 | 2583 ft | 180 kts | 299° |
| 2026-05-08 18:22 | 44.83424 | -93.11058 | 2330 ft | 179 kts | 298° |
| 2026-05-08 18:23 | 44.84060 | -93.12547 | 2097 ft | 179 kts | 299° |
| 2026-05-08 18:23 | 44.84712 | -93.14043 | 1864 ft | 179 kts | 300° |
| 2026-05-08 18:23 | 44.85353 | -93.15509 | 1618 ft | 170 kts | 301° |
| 2026-05-08 18:23 | 44.85948 | -93.16869 | 1390 ft | 157 kts | 302° |
| 2026-05-08 18:24 | 44.86495 | -93.18130 | 1197 ft | 144 kts | 301° |
| 2026-05-08 18:24 | 44.86986 | -93.19273 | 1026 ft | 136 kts | 301° |
| 2026-05-08 18:24 | 44.87477 | -93.20407 | 885 ft | 130 kts | 301° |
| 2026-05-08 18:24 | 44.87936 | -93.21440 | 857 ft | 118 kts | 302° |
| 2026-05-08 18:25 | 44.88310 | -93.22279 | 855 ft | 77 kts | 298° |
| 2026-05-08 18:25 | 44.88484 | -93.22707 | 854 ft | 14 kts | 321° |
| 2026-05-08 18:25 | 44.88569 | -93.22715 | 854 ft | 16 kts | 43° |
| 2026-05-08 18:25 | 44.88552 | -93.22566 | 854 ft | 17 kts | 117° |
| 2026-05-08 18:26 | 44.88488 | -93.22423 | 854 ft | 18 kts | 129° |
| 2026-05-08 18:26 | 44.88417 | -93.22299 | 854 ft | 18 kts | 123° |
| 2026-05-08 18:26 | 44.88354 | -93.22150 | 854 ft | 19 kts | 120° |
| 2026-05-08 18:26 | 44.88294 | -93.22003 | 854 ft | 16 kts | 121° |
| 2026-05-08 18:27 | 44.88235 | -93.21864 | 854 ft | 17 kts | 121° |
| 2026-05-08 18:27 | 44.88197 | -93.21778 | 854 ft | 16 kts | 121° |
| 2026-05-08 18:27 | 44.88117 | -93.21593 | 854 ft | 16 kts | 121° |
| 2026-05-08 18:27 | 44.88069 | -93.21482 | 854 ft | 10 kts | 121° |
| 2026-05-08 18:28 | 44.88047 | -93.21421 | 854 ft | 6 kts | 109° |
| 2026-05-08 18:28 | 44.88050 | -93.21357 | 854 ft | 6 kts | 71° |
| 2026-05-08 18:28 | 44.88079 | -93.21306 | 854 ft | 8 kts | 41° |
| 2026-05-08 18:28 | 44.88109 | -93.21273 | 854 ft | 6 kts | 36° |
| 2026-05-08 18:29 | 44.88122 | -93.21261 | 854 ft | 0 kts | 33° |